createdAt,value
2017-07-22T00:00:10.448Z,2.53
2017-07-22T00:02:37.106Z,2.93
2017-07-22T00:05:04.575Z,2.93
2017-07-22T00:07:31.185Z,3.53
2017-07-22T00:09:57.807Z,3.87
2017-07-22T00:12:24.428Z,3.03
2017-07-22T00:14:51.067Z,3.50
2017-07-22T00:17:17.709Z,2.67
2017-07-22T00:19:44.356Z,3.40
2017-07-22T00:22:10.987Z,3.47
2017-07-22T00:24:37.615Z,3.43
2017-07-22T00:27:04.255Z,3.17
2017-07-22T00:29:30.909Z,3.17
2017-07-22T00:31:58.372Z,3.40
2017-07-22T00:34:25.013Z,3.40
2017-07-22T00:36:51.635Z,3.30
2017-07-22T00:39:18.275Z,2.57
2017-07-22T00:41:44.904Z,3.40
2017-07-22T00:44:11.563Z,3.10
2017-07-22T00:46:38.206Z,3.43
2017-07-22T00:49:04.834Z,3.80
2017-07-22T00:51:31.583Z,3.30
2017-07-22T00:53:58.208Z,3.00
2017-07-22T00:56:24.831Z,2.93
2017-07-22T00:58:51.447Z,4.00
2017-07-22T01:01:18.078Z,4.20
2017-07-22T01:03:44.706Z,2.90
2017-07-22T01:06:11.350Z,2.73
2017-07-22T01:08:37.983Z,2.77
2017-07-22T01:11:04.642Z,3.03
2017-07-22T01:13:31.297Z,4.70
2017-07-22T01:15:57.938Z,3.57
2017-07-22T01:18:24.558Z,3.50
2017-07-22T01:20:51.614Z,3.30
2017-07-22T01:23:18.542Z,3.80
2017-07-22T01:25:45.175Z,3.83
2017-07-22T01:28:11.815Z,4.50
2017-07-22T01:30:38.473Z,4.27
2017-07-22T01:33:05.087Z,4.17
2017-07-22T01:35:31.721Z,3.80
2017-07-22T01:37:58.359Z,3.67
2017-07-22T01:40:24.975Z,3.03
2017-07-22T01:42:51.641Z,4.83
2017-07-22T01:45:18.307Z,4.70
2017-07-22T01:47:44.915Z,3.83
2017-07-22T01:50:11.580Z,3.90
2017-07-22T01:52:38.187Z,3.50
2017-07-22T01:55:05.559Z,4.70
2017-07-22T01:57:32.180Z,4.30
2017-07-22T01:59:58.825Z,3.83
2017-07-22T02:02:25.458Z,4.30
2017-07-22T02:04:52.083Z,5.17
2017-07-22T02:07:18.733Z,3.90
2017-07-22T02:09:45.355Z,4.60
2017-07-22T02:12:11.984Z,4.20
2017-07-22T02:14:38.606Z,3.93
2017-07-22T02:17:05.249Z,3.53
2017-07-22T02:19:31.895Z,3.93
2017-07-22T02:21:58.522Z,4.27
2017-07-22T02:24:25.139Z,4.30
2017-07-22T02:26:51.780Z,3.40
2017-07-22T02:29:18.472Z,3.40
2017-07-22T02:31:48.879Z,4.90
2017-07-22T02:34:17.171Z,4.93
2017-07-22T02:36:44.496Z,6.00
2017-07-22T02:39:11.389Z,5.13
2017-07-22T02:41:40.987Z,5.43
2017-07-22T02:44:09.134Z,4.63
2017-07-22T02:46:38.600Z,5.00
2017-07-22T02:49:05.974Z,5.50
2017-07-22T02:51:35.678Z,5.17
2017-07-22T02:54:03.475Z,5.60
2017-07-22T02:56:30.690Z,5.80
2017-07-22T02:58:58.364Z,5.00
2017-07-22T03:01:26.337Z,5.57
2017-07-22T03:03:53.585Z,5.50
2017-07-22T03:06:20.523Z,4.70
2017-07-22T03:08:48.202Z,5.40
2017-07-22T03:11:14.824Z,5.93
2017-07-22T03:13:41.443Z,5.73
2017-07-22T03:16:08.068Z,5.13
2017-07-22T03:18:34.695Z,6.20
2017-07-22T03:21:01.362Z,5.37
2017-07-22T03:23:27.962Z,5.27
2017-07-22T03:25:54.607Z,5.77
2017-07-22T03:28:21.208Z,5.30
2017-07-22T03:30:47.843Z,6.23
2017-07-22T03:33:14.473Z,5.90
2017-07-22T03:35:41.103Z,6.10
2017-07-22T03:38:07.745Z,6.83
2017-07-22T03:40:34.375Z,6.63
2017-07-22T03:43:01.003Z,7.10
2017-07-22T03:45:27.640Z,7.27
2017-07-22T03:47:54.278Z,6.57
2017-07-22T03:50:20.912Z,6.40
2017-07-22T03:52:47.550Z,7.13
2017-07-22T03:55:14.167Z,6.83
2017-07-22T03:57:40.799Z,6.33
2017-07-22T04:00:07.416Z,6.73
2017-07-22T04:02:34.035Z,5.43
2017-07-22T04:05:00.667Z,5.77
2017-07-22T04:07:27.284Z,5.30
2017-07-22T04:09:53.936Z,6.63
2017-07-22T04:12:20.566Z,6.40
2017-07-22T04:14:47.191Z,6.13
2017-07-22T04:17:13.834Z,6.70
2017-07-22T04:19:40.447Z,5.37
2017-07-22T04:22:07.083Z,6.37
2017-07-22T04:24:33.710Z,6.97
2017-07-22T04:27:00.319Z,5.57
2017-07-22T04:29:26.962Z,6.90
2017-07-22T04:31:53.919Z,6.10
2017-07-22T04:34:20.611Z,6.90
2017-07-22T04:36:47.235Z,7.43
2017-07-22T04:39:14.620Z,6.90
2017-07-22T04:41:41.249Z,7.07
2017-07-22T04:44:08.695Z,8.50
2017-07-22T04:46:35.661Z,7.30
2017-07-22T04:49:02.402Z,6.83
2017-07-22T04:51:29.019Z,6.60
2017-07-22T04:53:56.211Z,6.80
2017-07-22T04:56:23.231Z,7.50
2017-07-22T04:58:49.856Z,8.20
2017-07-22T05:01:16.471Z,6.70
2017-07-22T05:03:43.077Z,6.57
2017-07-22T05:06:09.752Z,7.47
2017-07-22T05:08:36.377Z,9.87
2017-07-22T05:11:03.031Z,6.93
2017-07-22T05:13:29.651Z,7.30
2017-07-22T05:15:56.291Z,7.60
2017-07-22T05:18:22.915Z,8.30
2017-07-22T05:20:49.536Z,7.27
2017-07-22T05:23:16.180Z,7.60
2017-07-22T05:25:42.819Z,6.97
2017-07-22T05:28:09.444Z,8.17
2017-07-22T05:30:36.081Z,7.67
2017-07-22T05:33:02.707Z,7.73
2017-07-22T05:35:29.339Z,6.77
2017-07-22T05:37:55.979Z,7.63
2017-07-22T05:40:22.603Z,7.57
2017-07-22T05:42:49.257Z,7.30
2017-07-22T05:45:15.862Z,7.60
2017-07-22T05:47:42.491Z,6.57
2017-07-22T05:50:09.160Z,6.30
2017-07-22T05:52:35.813Z,6.10
2017-07-22T05:55:02.436Z,5.10
2017-07-22T05:57:29.089Z,6.10
2017-07-22T05:59:55.720Z,6.80
2017-07-22T06:02:22.348Z,6.60
2017-07-22T06:04:48.976Z,5.93
2017-07-22T06:07:15.626Z,5.63
2017-07-22T06:09:43.001Z,5.80
2017-07-22T06:12:09.615Z,5.00
2017-07-22T06:14:36.284Z,6.20
2017-07-22T06:17:02.904Z,5.70
2017-07-22T06:19:29.534Z,4.70
2017-07-22T06:21:56.163Z,4.93
2017-07-22T06:24:22.787Z,5.07
2017-07-22T06:26:49.431Z,5.40
2017-07-22T06:29:16.042Z,4.90
2017-07-22T06:31:42.701Z,5.00
2017-07-22T06:34:09.323Z,5.10
2017-07-22T06:36:35.959Z,4.87
2017-07-22T06:39:02.585Z,4.90
2017-07-22T06:41:29.214Z,4.90
2017-07-22T06:43:55.859Z,5.30
2017-07-22T06:46:22.467Z,5.33
2017-07-22T06:48:49.119Z,6.00
2017-07-22T06:51:15.739Z,4.83
2017-07-22T06:53:42.787Z,5.93
2017-07-22T06:56:09.444Z,5.03
2017-07-22T06:58:36.067Z,5.00
2017-07-22T07:01:02.674Z,4.23
2017-07-22T07:03:29.315Z,4.47
2017-07-22T07:05:55.964Z,3.87
2017-07-22T07:08:22.607Z,3.27
2017-07-22T07:10:49.248Z,3.70
2017-07-22T07:13:15.887Z,2.90
2017-07-22T07:15:42.539Z,2.57
2017-07-22T07:18:09.185Z,2.63
2017-07-22T07:20:35.799Z,2.50
2017-07-22T07:23:02.429Z,2.50
2017-07-22T07:25:29.056Z,2.47
2017-07-22T07:27:55.703Z,2.70
2017-07-22T07:30:22.342Z,2.53
2017-07-22T07:32:48.984Z,3.10
2017-07-22T07:35:15.595Z,2.90
2017-07-22T07:37:42.225Z,2.90
2017-07-22T07:40:08.886Z,3.77
2017-07-22T07:42:35.518Z,3.00
2017-07-22T07:45:02.703Z,2.93
2017-07-22T07:47:29.318Z,2.87
2017-07-22T07:49:55.948Z,2.87
2017-07-22T07:52:22.571Z,2.50
2017-07-22T07:54:49.228Z,2.43
2017-07-22T07:57:15.858Z,2.77
2017-07-22T07:59:42.464Z,2.70
2017-07-22T08:02:09.099Z,3.10
2017-07-22T08:04:35.731Z,2.97
2017-07-22T08:07:02.377Z,3.40
2017-07-22T08:09:28.996Z,3.70
2017-07-22T08:11:55.648Z,3.87
2017-07-22T08:14:22.276Z,2.37
2017-07-22T08:16:48.925Z,2.73
2017-07-22T08:19:15.573Z,2.90
2017-07-22T08:21:42.186Z,3.00
2017-07-22T08:24:08.832Z,2.57
2017-07-22T08:26:35.478Z,3.00
2017-07-22T08:29:02.092Z,4.47
2017-07-22T08:31:28.723Z,2.87
2017-07-22T08:33:55.695Z,2.43
2017-07-22T08:36:22.348Z,2.37
2017-07-22T08:38:48.971Z,2.70
2017-07-22T08:41:15.829Z,1.90
2017-07-22T08:43:42.468Z,2.37
2017-07-22T08:46:09.604Z,2.70
2017-07-22T08:48:36.898Z,2.47
2017-07-22T08:51:03.516Z,3.40
2017-07-22T08:53:30.152Z,2.33
2017-07-22T08:55:56.816Z,2.93
2017-07-22T08:58:23.448Z,3.20
2017-07-22T09:00:50.083Z,2.63
2017-07-22T09:03:17.373Z,2.07
2017-07-22T09:05:44.010Z,2.47
2017-07-22T09:08:10.645Z,4.60
2017-07-22T09:10:38.188Z,2.83
2017-07-22T09:13:04.835Z,2.57
2017-07-22T09:15:31.464Z,2.23
2017-07-22T09:17:58.130Z,2.80
2017-07-22T09:20:24.817Z,2.33
2017-07-22T09:22:51.467Z,2.17
2017-07-22T09:25:18.114Z,2.13
2017-07-22T09:27:44.759Z,2.60
2017-07-22T09:30:11.380Z,1.70
2017-07-22T09:32:37.986Z,2.37
2017-07-22T09:35:04.629Z,2.13
2017-07-22T09:37:31.262Z,2.13
2017-07-22T09:39:57.919Z,2.30
2017-07-22T09:42:24.558Z,2.30
2017-07-22T09:44:51.174Z,1.87
2017-07-22T09:47:17.787Z,2.20
2017-07-22T09:49:44.430Z,1.70
2017-07-22T09:52:11.117Z,2.23
2017-07-22T09:54:37.755Z,2.07
2017-07-22T09:57:04.404Z,2.07
2017-07-22T09:59:31.568Z,1.93
2017-07-22T10:01:58.209Z,1.80
2017-07-22T10:04:24.860Z,1.30
2017-07-22T10:06:51.512Z,1.73
2017-07-22T10:09:18.134Z,2.00
2017-07-22T10:11:44.801Z,2.13
2017-07-22T10:14:11.416Z,3.27
2017-07-22T10:16:38.079Z,1.77
2017-07-22T10:19:05.460Z,1.87
2017-07-22T10:21:32.088Z,2.20
2017-07-22T10:23:58.920Z,2.10
2017-07-22T10:26:25.555Z,2.10
2017-07-22T10:28:52.198Z,1.87
2017-07-22T10:31:19.458Z,2.43
2017-07-22T10:33:46.086Z,1.90
2017-07-22T10:36:12.735Z,1.80
2017-07-22T10:38:39.374Z,1.67
2017-07-22T10:41:06.016Z,1.93
2017-07-22T10:43:32.727Z,1.80
2017-07-22T10:45:59.352Z,1.70
2017-07-22T10:48:26.003Z,2.03
2017-07-22T10:50:52.630Z,2.70
2017-07-22T10:53:19.244Z,1.93
2017-07-22T10:55:45.888Z,2.00
2017-07-22T10:58:12.530Z,1.73
2017-07-22T11:00:39.152Z,1.60
2017-07-22T11:03:05.772Z,2.10
2017-07-22T11:05:32.404Z,1.97
2017-07-22T11:07:59.023Z,2.33
2017-07-22T11:10:25.669Z,1.80
2017-07-22T11:12:52.340Z,1.87
2017-07-22T11:15:18.983Z,2.40
2017-07-22T11:17:45.618Z,2.00
2017-07-22T11:20:12.226Z,1.90
2017-07-22T11:22:38.866Z,1.90
2017-07-22T11:25:05.529Z,2.67
2017-07-22T11:27:32.170Z,2.80
2017-07-22T11:29:58.796Z,2.87
2017-07-22T11:32:25.452Z,2.37
2017-07-22T11:34:52.103Z,2.00
2017-07-22T11:37:18.719Z,2.23
2017-07-22T11:39:45.374Z,2.00
2017-07-22T11:42:11.994Z,2.33
2017-07-22T11:44:38.607Z,2.20
2017-07-22T11:47:05.257Z,2.30
2017-07-22T11:49:31.871Z,3.30
2017-07-22T11:51:58.520Z,2.43
2017-07-22T11:54:25.148Z,3.20
2017-07-22T11:56:51.794Z,1.93
2017-07-22T11:59:18.414Z,3.10
2017-07-22T12:01:45.033Z,2.70
2017-07-22T12:04:11.678Z,1.67
2017-07-22T12:06:38.325Z,2.13
2017-07-22T12:09:04.948Z,2.47
2017-07-22T12:11:31.594Z,2.13
2017-07-22T12:13:58.221Z,2.70
2017-07-22T12:16:24.867Z,2.17
2017-07-22T12:18:51.503Z,1.90
2017-07-22T12:21:18.143Z,2.13
2017-07-22T12:23:44.763Z,2.23
2017-07-22T12:26:11.749Z,2.10
2017-07-22T12:28:38.389Z,2.30
2017-07-22T12:31:04.999Z,2.77
2017-07-22T12:33:31.655Z,2.30
2017-07-22T12:35:58.277Z,2.60
2017-07-22T12:38:24.919Z,2.93
2017-07-22T12:40:51.575Z,2.83
2017-07-22T12:43:18.194Z,3.10
2017-07-22T12:45:44.824Z,2.30
2017-07-22T12:48:11.477Z,3.60
2017-07-22T12:50:38.127Z,2.87
2017-07-22T12:53:04.757Z,2.33
2017-07-22T12:55:31.379Z,3.23
2017-07-22T12:58:01.500Z,3.03
2017-07-22T13:00:28.126Z,2.97
2017-07-22T13:02:54.753Z,2.93
2017-07-22T13:05:21.366Z,2.60
2017-07-22T13:07:48.006Z,2.67
2017-07-22T13:10:14.651Z,2.57
2017-07-22T13:12:41.288Z,3.40
2017-07-22T13:15:07.899Z,2.70
2017-07-22T13:17:34.539Z,3.30
2017-07-22T13:20:01.190Z,3.13
2017-07-22T13:22:27.822Z,3.50
2017-07-22T13:24:54.447Z,4.03
2017-07-22T13:27:21.055Z,3.30
2017-07-22T13:29:47.682Z,2.90
2017-07-22T13:32:14.319Z,3.53
2017-07-22T13:34:40.938Z,3.23
2017-07-22T13:37:07.603Z,2.57
2017-07-22T13:39:34.236Z,3.27
2017-07-22T13:42:00.859Z,3.30
2017-07-22T13:44:27.479Z,3.00
2017-07-22T13:46:54.117Z,2.90
2017-07-22T13:49:20.777Z,2.93
2017-07-22T13:51:47.404Z,3.10
2017-07-22T13:54:14.131Z,3.47
2017-07-22T13:56:40.781Z,4.00
2017-07-22T13:59:07.389Z,3.30
2017-07-22T14:01:34.360Z,4.30
2017-07-22T14:04:00.976Z,4.60
2017-07-22T14:06:27.617Z,4.43
2017-07-22T14:08:54.218Z,3.90
2017-07-22T14:11:20.877Z,3.90
2017-07-22T14:13:47.522Z,3.33
2017-07-22T14:16:14.172Z,3.90
2017-07-22T14:18:40.841Z,3.40
2017-07-22T14:21:07.448Z,3.10
2017-07-22T14:23:34.054Z,3.27
2017-07-22T14:26:00.716Z,3.53
2017-07-22T14:28:27.337Z,3.13
2017-07-22T14:30:53.982Z,3.63
2017-07-22T14:33:20.950Z,3.23
2017-07-22T14:35:47.583Z,3.00
2017-07-22T14:38:14.222Z,2.70
2017-07-22T14:40:41.236Z,3.27
2017-07-22T14:43:07.838Z,3.50
2017-07-22T14:45:34.474Z,2.23
2017-07-22T14:48:01.115Z,3.17
2017-07-22T14:50:27.763Z,2.80
2017-07-22T14:52:54.560Z,3.13
2017-07-22T14:55:21.220Z,3.13
2017-07-22T14:57:47.886Z,3.63
2017-07-22T15:00:14.509Z,3.60
2017-07-22T15:02:41.146Z,3.10
2017-07-22T15:05:07.770Z,2.80
2017-07-22T15:07:34.407Z,3.33
2017-07-22T15:10:01.028Z,3.27
2017-07-22T15:12:27.652Z,2.80
2017-07-22T15:14:54.266Z,4.23
2017-07-22T15:17:20.901Z,3.20
2017-07-22T15:19:47.544Z,3.70
2017-07-22T15:22:14.175Z,2.80
2017-07-22T15:24:41.194Z,3.20
2017-07-22T15:27:07.829Z,3.23
2017-07-22T15:29:34.439Z,2.67
2017-07-22T15:32:01.100Z,2.63
2017-07-22T15:34:27.717Z,2.80
2017-07-22T15:36:54.372Z,3.07
2017-07-22T15:39:21.024Z,2.77
2017-07-22T15:41:47.667Z,2.93
2017-07-22T15:44:15.242Z,2.53
2017-07-22T15:46:41.880Z,2.90
2017-07-22T15:49:08.543Z,3.07
2017-07-22T15:51:35.160Z,2.80
2017-07-22T15:54:01.791Z,2.70
2017-07-22T15:56:28.431Z,2.50
2017-07-22T15:58:55.080Z,2.97
2017-07-22T16:01:21.717Z,2.87
2017-07-22T16:03:48.337Z,2.63
2017-07-22T16:06:15.043Z,2.60
2017-07-22T16:08:41.694Z,2.20
2017-07-22T16:11:08.332Z,2.43
2017-07-22T16:13:34.956Z,2.20
2017-07-22T16:16:01.604Z,2.20
2017-07-22T16:18:28.230Z,2.03
2017-07-22T16:20:54.887Z,2.07
2017-07-22T16:23:21.508Z,2.57
2017-07-22T16:25:48.119Z,2.27
2017-07-22T16:28:14.745Z,2.50
2017-07-22T16:30:41.386Z,3.50
2017-07-22T16:33:08.040Z,2.87
2017-07-22T16:35:34.670Z,2.30
2017-07-22T16:38:01.319Z,2.10
2017-07-22T16:40:27.962Z,2.47
2017-07-22T16:42:54.910Z,2.90
2017-07-22T16:45:21.528Z,2.53
2017-07-22T16:47:48.171Z,2.40
2017-07-22T16:50:14.815Z,2.10
2017-07-22T16:52:41.446Z,3.00
2017-07-22T16:55:08.107Z,3.00
2017-07-22T16:57:34.736Z,2.57
2017-07-22T17:00:01.346Z,2.57
2017-07-22T17:02:27.985Z,2.27
2017-07-22T17:04:54.612Z,2.33
2017-07-22T17:07:21.229Z,3.00
2017-07-22T17:09:47.871Z,2.73
2017-07-22T17:12:14.834Z,2.90
2017-07-22T17:14:41.463Z,2.80
2017-07-22T17:17:08.082Z,2.43
2017-07-22T17:19:34.939Z,3.10
2017-07-22T17:22:01.593Z,3.40
2017-07-22T17:24:28.224Z,2.70
2017-07-22T17:26:54.872Z,2.80
2017-07-22T17:29:21.756Z,2.80
2017-07-22T17:31:48.396Z,3.13
2017-07-22T17:34:15.814Z,3.53
2017-07-22T17:36:42.482Z,2.90
2017-07-22T17:39:09.091Z,3.43
2017-07-22T17:41:35.707Z,3.27
2017-07-22T17:44:02.343Z,2.93
2017-07-22T17:46:28.998Z,2.67
2017-07-22T17:48:55.624Z,3.40
2017-07-22T17:51:22.267Z,3.63
2017-07-22T17:53:48.935Z,3.83
2017-07-22T17:56:15.587Z,2.90
2017-07-22T17:58:42.215Z,3.10
2017-07-22T18:01:08.831Z,3.37
2017-07-22T18:03:35.472Z,2.97
2017-07-22T18:06:02.115Z,4.23
2017-07-22T18:08:28.743Z,3.00
2017-07-22T18:10:55.353Z,2.40
2017-07-22T18:13:21.990Z,2.80
2017-07-22T18:15:48.683Z,3.07
2017-07-22T18:18:15.316Z,2.40
2017-07-22T18:20:41.946Z,3.13
2017-07-22T18:23:08.596Z,3.37
2017-07-22T18:25:35.220Z,2.67
2017-07-22T18:28:01.847Z,2.73
2017-07-22T18:30:28.467Z,2.83
2017-07-22T18:32:55.106Z,3.00
2017-07-22T18:35:21.746Z,2.67
2017-07-22T18:37:48.367Z,2.50
2017-07-22T18:40:15.050Z,3.03
2017-07-22T18:42:41.692Z,2.60
2017-07-22T18:45:08.329Z,2.70
2017-07-22T18:47:34.972Z,2.80
2017-07-22T18:50:01.618Z,2.30
2017-07-22T18:52:28.231Z,3.00
2017-07-22T18:54:54.869Z,2.37
2017-07-22T18:57:21.520Z,2.77
2017-07-22T18:59:48.127Z,2.97
2017-07-22T19:02:14.776Z,2.73
2017-07-22T19:04:41.394Z,2.60
2017-07-22T19:07:08.067Z,2.70
2017-07-22T19:09:34.692Z,3.07
2017-07-22T19:12:01.323Z,3.40
2017-07-22T19:14:28.001Z,3.73
2017-07-22T19:16:54.617Z,3.00
2017-07-22T19:19:21.254Z,3.93
2017-07-22T19:21:47.901Z,4.13
2017-07-22T19:24:15.223Z,2.50
2017-07-22T19:26:41.865Z,3.30
2017-07-22T19:29:08.468Z,3.57
2017-07-22T19:31:35.137Z,3.50
2017-07-22T19:34:03.620Z,3.40
2017-07-22T19:36:30.263Z,3.43
2017-07-22T19:38:56.894Z,3.60
2017-07-22T19:41:23.519Z,3.50
2017-07-22T19:43:50.150Z,3.20
2017-07-22T19:46:16.768Z,3.50
2017-07-22T19:48:43.423Z,3.63
2017-07-22T19:51:10.032Z,3.40
2017-07-22T19:53:36.668Z,4.33
2017-07-22T19:56:03.645Z,2.90
2017-07-22T19:58:30.310Z,3.70
2017-07-22T20:00:57.395Z,3.57
2017-07-22T20:03:24.000Z,3.77
2017-07-22T20:05:50.666Z,3.20
2017-07-22T20:08:17.310Z,3.63
2017-07-22T20:10:43.928Z,2.80
2017-07-22T20:13:10.588Z,3.10
2017-07-22T20:15:37.237Z,3.87
2017-07-22T20:18:03.887Z,4.30
2017-07-22T20:20:30.536Z,3.70
2017-07-22T20:22:57.156Z,3.40
2017-07-22T20:25:23.826Z,3.80
2017-07-22T20:27:51.297Z,4.50
2017-07-22T20:30:18.779Z,4.33
2017-07-22T20:32:45.418Z,4.80
2017-07-22T20:35:12.033Z,4.60
2017-07-22T20:37:38.682Z,3.43
2017-07-22T20:40:05.309Z,3.87
2017-07-22T20:42:31.923Z,3.73
2017-07-22T20:44:58.573Z,4.10
2017-07-22T20:47:25.187Z,5.70
2017-07-22T20:49:51.824Z,3.87
2017-07-22T20:52:18.444Z,5.20
2017-07-22T20:54:45.066Z,5.53
2017-07-22T20:57:12.028Z,7.43
2017-07-22T20:59:38.972Z,5.17
2017-07-22T21:02:05.608Z,6.83
2017-07-22T21:04:32.223Z,8.60
2017-07-22T21:06:59.232Z,9.43
2017-07-22T21:09:25.871Z,3.97
2017-07-22T21:11:52.538Z,3.53
2017-07-22T21:14:19.156Z,4.00
2017-07-22T21:16:45.770Z,4.13
2017-07-22T21:19:12.403Z,4.10
2017-07-22T21:21:39.020Z,4.63
2017-07-22T21:24:05.652Z,4.30
2017-07-22T21:26:32.275Z,3.80
2017-07-22T21:28:58.918Z,4.63
2017-07-22T21:31:25.555Z,2.87
2017-07-22T21:33:52.154Z,3.20
2017-07-22T21:36:18.792Z,2.93
2017-07-22T21:38:45.425Z,3.30
2017-07-22T21:41:12.060Z,2.97
2017-07-22T21:43:38.706Z,4.20
2017-07-22T21:46:05.370Z,3.73
2017-07-22T21:48:32.032Z,3.77
2017-07-22T21:50:58.659Z,4.00
2017-07-22T21:53:25.281Z,2.80
2017-07-22T21:55:51.907Z,3.53
2017-07-22T21:58:18.560Z,4.50
2017-07-22T22:00:45.199Z,2.73
2017-07-22T22:03:11.843Z,3.10
2017-07-22T22:05:38.767Z,3.60
2017-07-22T22:08:05.455Z,5.43
2017-07-22T22:10:32.059Z,3.00
2017-07-22T22:12:58.684Z,4.70
2017-07-22T22:15:25.319Z,4.70
2017-07-22T22:17:51.956Z,4.07
2017-07-22T22:20:18.580Z,4.50
2017-07-22T22:22:45.251Z,5.00
2017-07-22T22:25:11.893Z,5.07
2017-07-22T22:27:38.538Z,4.73
2017-07-22T22:30:05.208Z,4.43
2017-07-22T22:32:31.822Z,4.90
2017-07-22T22:34:58.418Z,4.43
2017-07-22T22:37:25.068Z,5.40
2017-07-22T22:39:52.047Z,4.37
2017-07-22T22:42:18.670Z,4.40
2017-07-22T22:44:45.336Z,4.40
2017-07-22T22:47:11.955Z,4.97
2017-07-22T22:49:38.602Z,5.60
2017-07-22T22:52:05.268Z,4.00
2017-07-22T22:54:31.940Z,4.90
2017-07-22T22:57:01.988Z,4.53
2017-07-22T22:59:29.281Z,5.67
2017-07-22T23:01:57.368Z,4.10
2017-07-22T23:04:23.977Z,4.43
2017-07-22T23:06:50.618Z,5.40
2017-07-22T23:09:17.247Z,5.73
2017-07-22T23:11:43.857Z,4.57
2017-07-22T23:14:10.509Z,6.57
2017-07-22T23:16:37.129Z,4.80
2017-07-22T23:19:04.597Z,5.60
2017-07-22T23:21:31.235Z,6.20
2017-07-22T23:23:57.848Z,4.80
2017-07-22T23:26:24.488Z,5.03
2017-07-22T23:28:51.089Z,4.73
2017-07-22T23:31:17.738Z,4.50
2017-07-22T23:33:44.389Z,5.73
2017-07-22T23:36:11.019Z,4.67
2017-07-22T23:38:37.671Z,5.37
2017-07-22T23:41:05.307Z,3.97
2017-07-22T23:43:31.931Z,4.70
2017-07-22T23:45:58.574Z,4.97
2017-07-22T23:48:25.223Z,4.27
2017-07-22T23:50:51.879Z,4.20
2017-07-22T23:53:18.483Z,4.53
2017-07-22T23:55:45.108Z,4.80
2017-07-22T23:58:11.767Z,4.80
